createdAt,value
2017-07-10T00:02:43.437Z,18.34
2017-07-10T00:12:43.402Z,18.15
2017-07-10T00:22:43.444Z,18.06
2017-07-10T00:32:43.425Z,17.91
2017-07-10T00:42:43.370Z,17.92
2017-07-10T00:52:43.429Z,17.84
2017-07-10T01:02:43.388Z,17.88
2017-07-10T01:12:43.349Z,17.99
2017-07-10T01:22:43.407Z,18.02
2017-07-10T01:32:43.404Z,18.03
2017-07-10T01:42:43.459Z,18
2017-07-10T01:52:43.392Z,18
2017-07-10T02:02:43.355Z,17.99
2017-07-10T02:12:43.413Z,17.85
2017-07-10T02:22:43.366Z,17.78
2017-07-10T02:32:43.422Z,17.74
2017-07-10T02:42:43.409Z,17.62
2017-07-10T02:52:43.355Z,17.62
2017-07-10T03:02:43.410Z,17.5
2017-07-10T03:12:43.378Z,17.5
2017-07-10T03:22:43.345Z,17.69
2017-07-10T03:32:43.415Z,17.51
2017-07-10T03:42:43.358Z,17.57
2017-07-10T03:52:43.436Z,17.43
2017-07-10T04:02:43.388Z,17.62
2017-07-10T04:12:43.348Z,17.62
2017-07-10T04:22:43.405Z,17.71
2017-07-10T04:32:43.352Z,17.81
2017-07-10T04:42:43.438Z,17.94
2017-07-10T04:52:43.399Z,18.04
2017-07-10T05:02:43.370Z,18.18
2017-07-10T05:12:43.436Z,18.22
2017-07-10T05:22:43.374Z,18.24
2017-07-10T05:32:43.462Z,18.39
2017-07-10T05:42:43.396Z,18.31
2017-07-10T05:52:43.376Z,18.47
2017-07-10T06:02:43.430Z,18.47
2017-07-10T06:12:43.395Z,18.65
2017-07-10T06:22:43.436Z,18.49
2017-07-10T06:32:43.405Z,18.46
2017-07-10T06:42:43.391Z,18.76
2017-07-10T06:52:43.402Z,18.77
2017-07-10T07:02:43.458Z,19.24
2017-07-10T07:12:43.555Z,19.83
2017-07-10T07:22:43.417Z,20.06
2017-07-10T07:32:43.351Z,20.24
2017-07-10T07:42:43.339Z,20.27
2017-07-10T07:52:43.331Z,20.13
2017-07-10T08:02:43.332Z,20.25
2017-07-10T08:12:43.372Z,20.5
2017-07-10T08:22:43.409Z,20.66
2017-07-10T08:32:43.353Z,20.61
2017-07-10T08:42:43.394Z,20.91
2017-07-10T08:52:43.335Z,21.16
2017-07-10T09:02:43.351Z,21.59
2017-07-10T09:12:43.352Z,22.14
2017-07-10T09:22:43.358Z,22.97
2017-07-10T09:32:43.367Z,23.47
2017-07-10T09:42:43.354Z,23.89
2017-07-10T09:52:43.356Z,24.47
2017-07-10T10:02:43.629Z,25.16
2017-07-10T10:12:43.369Z,26.72
2017-07-10T10:22:43.356Z,27.1
2017-07-10T10:32:43.375Z,27.42
2017-07-10T10:42:43.383Z,27.89
2017-07-10T10:52:43.368Z,27.54
2017-07-10T11:02:43.374Z,27.35
2017-07-10T11:12:43.380Z,28.07
2017-07-10T11:22:43.364Z,27.64
2017-07-10T11:32:43.388Z,28.07
2017-07-10T11:42:43.386Z,28.11
2017-07-10T11:52:43.401Z,28.04
2017-07-10T12:02:43.394Z,28.14
2017-07-10T12:12:43.395Z,27.71
2017-07-10T12:22:43.381Z,27.88
2017-07-10T12:32:43.399Z,28.75
2017-07-10T12:42:43.396Z,29.06
2017-07-10T12:52:43.474Z,28.19
2017-07-10T13:02:43.428Z,27.31
2017-07-10T13:12:43.490Z,26.57
2017-07-10T13:22:43.439Z,26.28
2017-07-10T13:32:43.524Z,27.21
2017-07-10T13:42:43.449Z,28.33
2017-07-10T13:52:43.514Z,28.53
2017-07-10T14:02:43.479Z,28.81
2017-07-10T14:12:43.450Z,29.08
2017-07-10T14:22:43.493Z,28.32
2017-07-10T14:32:43.445Z,28.06
2017-07-10T14:42:43.899Z,28.84
2017-07-10T14:52:43.502Z,28.63
2017-07-10T15:02:47.515Z,28.1
2017-07-10T15:12:43.535Z,28.41
2017-07-10T15:22:43.471Z,27.7
2017-07-10T15:32:43.593Z,26.98
2017-07-10T15:42:43.552Z,25.94
2017-07-10T15:52:43.513Z,26.25
2017-07-10T16:02:43.463Z,26.46
2017-07-10T16:12:43.561Z,27.05
2017-07-10T16:22:43.506Z,27.02
2017-07-10T16:32:43.829Z,26.12
2017-07-10T16:42:43.528Z,25.79
2017-07-10T16:52:43.510Z,24.9
2017-07-10T17:02:44.401Z,23.27
2017-07-10T17:12:43.510Z,22.92
2017-07-10T17:22:43.535Z,23.31
2017-07-10T17:32:43.465Z,23.55
2017-07-10T17:42:43.579Z,22.83
2017-07-10T17:52:43.471Z,22.5
2017-07-10T18:02:43.500Z,21.9
2017-07-10T18:12:43.480Z,21.63
2017-07-10T18:22:44.205Z,21.23
2017-07-10T18:32:43.496Z,21.09
2017-07-10T18:42:43.459Z,20.81
2017-07-10T18:52:43.496Z,20.69
2017-07-10T19:02:43.511Z,20.77
2017-07-10T19:12:43.477Z,20.61
2017-07-10T19:22:43.490Z,20.65
2017-07-10T19:32:43.512Z,20.51
2017-07-10T19:42:43.518Z,20.66
2017-07-10T19:52:43.503Z,20.53
2017-07-10T20:02:43.550Z,20.41
2017-07-10T20:12:43.502Z,20.25
2017-07-10T20:22:43.497Z,20.06
2017-07-10T20:32:44.022Z,19.93
2017-07-10T20:42:43.488Z,19.86
2017-07-10T20:52:43.494Z,19.8
2017-07-10T21:02:43.776Z,19.79
2017-07-10T21:12:43.481Z,19.68
2017-07-10T21:22:43.542Z,19.65
2017-07-10T21:32:43.513Z,19.58
2017-07-10T21:42:43.545Z,19.53
2017-07-10T21:52:43.514Z,19.61
2017-07-10T22:02:43.581Z,19.48
2017-07-10T22:12:43.550Z,19.5
2017-07-10T22:22:47.561Z,19.47
2017-07-10T22:32:43.545Z,18.84
2017-07-10T22:42:43.535Z,18.55
2017-07-10T22:52:43.686Z,18.37
2017-07-10T23:02:43.542Z,18.33
2017-07-10T23:12:43.603Z,18.29
2017-07-10T23:22:43.657Z,18.28
2017-07-10T23:32:43.587Z,18.29
2017-07-10T23:42:43.579Z,18.04
2017-07-10T23:52:44.574Z,17.97
